Aérodrome :
LOGIN :

S'inscrire | Disclaimer

   EN    FR    IT 

 










Légende :    VFR   VFR Marginal   IFR   IFR Intensif   IFR Très Intensif
Visi : 
Plafond : 
>= 8 km
>= 3000ft
5 à 8 km
1000 à 3000 ft
1500m à 5 km
500 à 1000 ft
800 à 1500m
200 à 500 ft
< 800m
< 200 ft
Symboles :   Orages  Brouillard  Fortes neiges  Fortes précipitations  Vent > 20 kt
SIGMETs :   Divers  Orages  Givrage  Turbulence  Onde Orograph.  Cendres Volcan.







- Altitude de l'aérodrome : 266 ft
- Code IATA : NCL
- Voir les cartes d'approche


EGNT - Newcastle

DERNIER METAR :
  • 250420Z 28007KT 9999 FEW010 SCT018 07/06 Q1004

METARs EXPIRÉS :
  • 250350Z 27008KT 9999 FEW012 SCT021 07/06 Q1004
  • 250320Z 25004KT 220V290 9999 FEW012 07/05 Q1004
  • 250250Z 27008KT 9999 FEW012 07/05 Q1004
  • 250220Z 27009KT 9999 FEW012 07/06 Q1004
  • 250150Z 28010KT 9999 SCT012 07/05 Q1004

TAF TAF EGNT
Valide du 25 à 00h jusqu'au 26 à 00h UTC


242302Z 2500/2524 24005KT 9999 FEW020 SCT040
PROB30
TEMPO 2500/2504 7000 SHRA BKN014
BECMG 2508/2511 25015G27KT
TEMPO 2510/2522 7000 SHRA
PROB30
TEMPO 2510/2512 4000 +SHRA BKN012CB
PROB30
TEMPO 2514/2520 3000 +SHRA TSGS SCT008 BKN014CB
BECMG 2518/2521 22005KT
ATIS : +44 191 214 3400
Pas de NOTAMs connus pour ce terrain.



MET'MAP, la Météo Aéronautique d'un coup d'oeil ! - Copyright ORBIFLY Décembre 2007 - Disclaimer

ORBIFLY MET'MAP TEAM :

Programmation & Développement : Alexandra Zaïnal
Conception & Développement : Baudouin d'Aumeries
Co-Programmation & Développement : Marc-Olivier Méhu
Soutien technique & logistique : Manuel Goepfert

Contact : metmap@orbifly.com




SOURCES & CREDITS :

   NOAA